Time;durP1;ratioP1;P1;durP2;ratioP2;P2;SDS_P1;SDS_P2;PMS_P1;PMS_P2;Temp;Humidity;BMP_temperature;BMP_pressure;BME280_temperature;BME280_humidity;BME280_pressure;Samples;Min_cycle;Max_cycle;Signal;HPM_P1;HPM_P2
2022/08/21 00:00:58;;;;;;;17.80;3.17;;;;;;;19.15;100.00;100036.53;1656566;86;21110;-57
2022/08/21 00:03:26;;;;;;;26.27;4.03;;;;;;;19.16;100.00;100032.84;1655839;86;21105;-57
2022/08/21 00:05:53;;;;;;;19.83;3.60;;;;;;;19.17;100.00;100030.50;1653437;85;21123;-66
2022/08/21 00:08:20;;;;;;;18.27;3.67;;;;;;;19.20;100.00;100026.55;1654238;85;22221;-57
2022/08/21 00:10:49;;;;;;;19.37;4.50;;;;;;;19.16;100.00;100026.23;1654398;85;21132;-57
2022/08/21 00:13:16;;;;;;;22.03;4.00;;;;;;;19.09;100.00;100028.28;1654407;85;21092;-57
2022/08/21 00:15:43;;;;;;;28.17;3.80;;;;;;;19.15;100.00;100025.97;1653955;85;20970;-66
2022/08/21 00:18:11;;;;;;;17.40;3.93;;;;;;;19.15;100.00;100022.53;1653586;86;22249;-59
2022/08/21 00:20:38;;;;;;;25.40;3.63;;;;;;;19.12;100.00;100021.69;1653580;86;21032;-57
2022/08/21 00:23:06;;;;;;;21.73;4.13;;;;;;;19.09;100.00;100021.68;1653557;86;21073;-57
2022/08/21 00:25:33;;;;;;;20.17;4.03;;;;;;;19.08;100.00;100019.27;1653319;85;21073;-65
2022/08/21 00:28:01;;;;;;;23.43;4.20;;;;;;;19.09;100.00;100025.64;1653403;86;21456;-64
2022/08/21 00:30:30;;;;;;;20.60;3.07;;;;;;;19.10;100.00;100020.63;1653518;86;22176;-57
2022/08/21 00:32:57;;;;;;;30.13;4.30;;;;;;;19.02;100.00;100022.91;1653456;85;21010;-57
2022/08/21 00:35:31;;;;;;;24.53;3.70;;;;;;;19.02;100.00;100024.23;1653528;85;20962;-67
2022/08/21 00:37:58;;;;;;;19.43;3.07;;;;;;;19.02;100.00;100021.58;1653363;86;21131;-66
2022/08/21 00:40:50;;;;;;;21.43;4.00;;;;;;;19.03;100.00;100027.14;1653996;85;21140;-57
2022/08/21 00:43:20;;;;;;;;;;;;;;;19.02;100.00;100033.47;1656076;86;21141;-56
2022/08/21 00:45:47;;;;;;;22.87;3.60;;;;;;;19.00;100.00;100028.41;1676778;85;20144;-56
2022/08/21 00:48:15;;;;;;;25.03;4.03;;;;;;;18.99;100.00;100028.67;1676895;84;21039;-57
2022/08/21 00:51:08;;;;;;;20.20;4.93;;;;;;;19.01;100.00;100031.84;1677155;84;20917;-56
2022/08/21 00:53:37;;;;;;;21.80;4.20;;;;;;;18.98;100.00;100030.52;1677176;85;21440;-56
2022/08/21 00:56:06;;;;;;;21.17;4.40;;;;;;;18.98;100.00;100031.84;1677216;85;21986;-56
2022/08/21 00:58:35;;;;;;;19.43;4.03;;;;;;;18.95;100.00;100027.83;1676505;85;21031;-59
2022/08/21 01:01:04;;;;;;;24.07;4.03;;;;;;;18.89;100.00;100020.07;1676355;84;21461;-57
2022/08/21 01:03:32;;;;;;;22.80;3.67;;;;;;;18.88;100.00;100019.28;1677493;85;21384;-57
2022/08/21 01:05:59;;;;;;;17.67;3.70;;;;;;;18.91;100.00;100018.80;1661901;85;21062;-56
2022/08/21 01:08:27;;;;;;;17.93;2.97;;;;;;;18.86;100.00;100016.59;1687118;85;21226;-66
2022/08/21 01:10:54;;;;;;;20.83;3.27;;;;;;;18.85;100.00;100011.04;1648843;84;21035;-61
2022/08/21 01:13:24;;;;;;;29.20;4.23;;;;;;;18.87;100.00;100014.25;1698607;84;21451;-56
2022/08/21 01:15:52;;;;;;;17.73;3.17;;;;;;;18.85;100.00;100022.92;1699612;84;21031;-56
2022/08/21 01:18:20;;;;;;;25.50;3.40;;;;;;;18.84;100.00;100029.26;1699416;82;21042;-57
2022/08/21 01:21:04;;;;;;;19.07;3.27;;;;;;;18.79;100.00;100026.52;1698942;84;21329;-56
2022/08/21 01:23:31;;;;;;;19.90;3.50;;;;;;;18.84;100.00;100023.97;1699202;83;21097;-56
2022/08/21 01:25:59;;;;;;;16.10;2.67;;;;;;;18.83;100.00;100028.98;1699292;82;21530;-57
2022/08/21 01:28:26;;;;;;;22.73;2.87;;;;;;;18.86;100.00;100027.16;1699094;82;21043;-65
2022/08/21 01:30:53;;;;;;;25.77;4.03;;;;;;;18.75;100.00;100030.69;1699712;83;21037;-61
2022/08/21 01:33:21;;;;;;;19.37;3.03;;;;;;;18.80;100.00;100025.50;1698907;84;21225;-56
2022/08/21 01:35:48;;;;;;;25.50;4.53;;;;;;;18.85;100.00;100024.24;1699465;84;21277;-56
2022/08/21 01:38:17;;;;;;;21.20;3.73;;;;;;;18.88;100.00;100025.08;1699577;84;21050;-58
2022/08/21 01:40:44;;;;;;;20.30;3.73;;;;;;;18.92;100.00;100025.67;1698915;84;21027;-56
2022/08/21 01:43:11;;;;;;;18.70;3.37;;;;;;;18.88;100.00;100021.13;1699772;84;21067;-63
2022/08/21 01:45:38;;;;;;;21.43;3.33;;;;;;;18.92;100.00;100019.59;1699511;84;21743;-56
2022/08/21 01:48:05;;;;;;;24.87;3.97;;;;;;;19.02;100.00;100026.34;1699550;84;21144;-56
2022/08/21 01:50:34;;;;;;;19.63;3.23;;;;;;;19.07;100.00;100029.04;1699101;83;21441;-56
2022/08/21 01:53:03;;;;;;;16.73;3.00;;;;;;;19.13;100.00;100032.03;1699454;84;21027;-56
2022/08/21 01:55:30;;;;;;;19.67;3.63;;;;;;;19.18;100.00;100033.41;1698895;83;21528;-60
2022/08/21 01:57:58;;;;;;;29.10;4.17;;;;;;;19.27;100.00;100038.27;1699450;84;21328;-56
2022/08/21 02:00:26;;;;;;;18.90;3.83;;;;;;;19.29;100.00;100035.66;1699186;84;21023;-56
2022/08/21 02:02:53;;;;;;;17.10;3.40;;;;;;;19.35;100.00;100033.87;1699337;84;21031;-56
2022/08/21 02:05:21;;;;;;;22.60;3.83;;;;;;;19.38;100.00;100033.37;1690884;84;21112;-65
2022/08/21 02:07:51;;;;;;;19.63;4.40;;;;;;;19.44;100.00;100036.38;1686087;85;21570;-58
2022/08/21 02:10:25;;;;;;;23.00;3.80;;;;;;;19.51;100.00;100046.24;1687059;85;21672;-57
2022/08/21 02:12:53;;;;;;;18.53;3.43;;;;;;;19.56;100.00;100041.53;1687099;85;21493;-56
2022/08/21 02:15:21;;;;;;;22.90;2.90;;;;;;;19.61;100.00;100042.37;1687415;85;21024;-57
2022/08/21 02:17:52;;;;;;;21.03;4.00;;;;;;;19.63;100.00;100039.00;1686255;83;21003;-57
2022/08/21 02:20:24;;;;;;;19.15;4.92;;;;;;;19.66;100.00;100045.62;1687588;85;21027;-59
2022/08/21 02:22:53;;;;;;;16.20;3.43;;;;;;;19.67;100.00;100042.74;1686251;85;21406;-57
2022/08/21 02:25:22;;;;;;;22.27;3.53;;;;;;;19.73;100.00;100049.40;1686287;85;20995;-57
2022/08/21 02:27:49;;;;;;;26.43;4.60;;;;;;;19.75;100.00;100049.44;1686297;85;21846;-57
2022/08/21 02:30:22;;;;;;;23.70;3.03;;;;;;;19.80;100.00;100048.16;1686688;85;21142;-57
2022/08/21 02:32:48;;;;;;;;;;;;;;;19.86;100.00;100050.34;1689190;85;21019;-58
2022/08/21 02:35:16;;;;;;;27.47;4.60;;;;;;;19.90;100.00;100046.95;1686301;85;21141;-58
2022/08/21 02:37:57;;;;;;;24.20;4.33;;;;;;;19.95;100.00;100047.52;1686864;85;21086;-58
2022/08/21 02:40:28;;;;;;;21.17;4.50;;;;;;;20.04;100.00;100057.94;1686632;83;21642;-57
2022/08/21 02:42:55;;;;;;;23.50;3.75;;;;;;;20.07;100.00;100046.83;1686005;85;21063;-59
2022/08/21 02:45:22;;;;;;;23.10;3.70;;;;;;;20.12;100.00;100053.52;1686959;85;21380;-57
2022/08/21 02:47:53;;;;;;;23.67;3.73;;;;;;;20.15;100.00;100050.37;1686273;85;21164;-57
2022/08/21 02:50:25;;;;;;;27.65;4.25;;;;;;;20.17;100.00;100050.11;1686741;85;21086;-57
2022/08/21 02:52:52;;;;;;;35.13;4.90;;;;;;;20.17;100.00;100052.22;1686245;85;21549;-59
2022/08/21 02:55:20;;;;;;;16.60;3.30;;;;;;;20.18;100.00;100059.63;1686979;85;20983;-57
2022/08/21 02:57:48;;;;;;;19.37;4.67;;;;;;;20.20;100.00;100059.40;1685986;83;21600;-60
2022/08/21 03:00:16;;;;;;;20.87;5.10;;;;;;;20.22;100.00;100054.64;1686432;85;21288;-57
2022/08/21 03:02:46;;;;;;;17.30;3.70;;;;;;;20.23;100.00;100067.64;1686295;83;21008;-58
2022/08/21 03:05:14;;;;;;;24.63;3.90;;;;;;;20.22;100.00;100064.70;1686562;85;21090;-57
2022/08/21 03:07:44;;;;;;;33.10;3.70;;;;;;;20.26;100.00;100071.61;1686886;85;20967;-59
2022/08/21 03:10:11;;;;;;;19.93;3.87;;;;;;;20.27;100.00;100075.34;1686696;83;20964;-56
2022/08/21 03:12:38;;;;;;;27.43;3.93;;;;;;;20.26;100.00;100076.91;1686448;85;22238;-59
2022/08/21 03:15:09;;;;;;;23.30;3.63;;;;;;;20.26;100.00;100081.67;1687122;85;21973;-56
2022/08/21 03:17:36;;;;;;;25.23;4.10;;;;;;;20.21;100.00;100076.34;1687058;83;21123;-57
2022/08/21 03:20:06;;;;;;;22.40;3.30;;;;;;;20.18;100.00;100076.84;1686188;85;21016;-58
2022/08/21 03:22:34;;;;;;;22.40;3.87;;;;;;;20.17;100.00;100081.34;1686857;85;21132;-58
2022/08/21 03:25:01;;;;;;;21.47;3.30;;;;;;;20.21;100.00;100082.16;1686545;83;21389;-58
2022/08/21 03:27:28;;;;;;;21.80;3.57;;;;;;;20.18;100.00;100082.92;1686797;85;21063;-57
2022/08/21 03:29:56;;;;;;;17.50;3.67;;;;;;;20.21;100.00;100086.92;1686143;83;21019;-59
2022/08/21 03:32:23;;;;;;;22.63;3.30;;;;;;;20.22;100.00;100077.93;1686871;85;21479;-56
2022/08/21 03:34:52;;;;;;;18.50;3.07;;;;;;;20.20;100.00;100087.19;1686534;83;21031;-56
2022/08/21 03:37:20;;;;;;;15.50;3.30;;;;;;;20.32;100.00;100096.56;1686989;83;22112;-56
2022/08/21 03:39:47;;;;;;;24.47;3.80;;;;;;;20.17;100.00;100095.89;1686390;83;21035;-58
2022/08/21 03:42:14;;;;;;;21.13;3.30;;;;;;;20.18;100.00;100096.16;1686792;83;21571;-56
2022/08/21 03:44:43;;;;;;;21.07;3.40;;;;;;;20.17;100.00;100098.54;1687088;85;21525;-58
2022/08/21 03:47:11;;;;;;;15.70;3.00;;;;;;;20.17;100.00;100101.19;1686582;85;21067;-56
2022/08/21 03:49:38;;;;;;;14.47;3.87;;;;;;;20.20;100.00;100103.07;1686983;85;21167;-56
2022/08/21 03:52:06;;;;;;;20.13;3.27;;;;;;;20.17;100.00;100109.13;1686404;85;21027;-58
2022/08/21 03:54:33;;;;;;;18.33;3.00;;;;;;;20.23;100.00;100110.48;1686960;85;21433;-64
2022/08/21 03:57:02;;;;;;;23.37;3.93;;;;;;;20.30;100.00;100111.09;1686680;84;38793;-56
2022/08/21 03:59:29;;;;;;;11.73;3.00;;;;;;;20.34;100.00;100111.68;1686636;85;21310;-56
2022/08/21 04:02:00;;;;;;;16.90;2.70;;;;;;;20.36;100.00;100104.27;1686541;85;21152;-60
2022/08/21 04:04:28;;;;;;;18.07;3.25;;;;;;;20.42;100.00;100103.81;1686967;83;21432;-56
2022/08/21 04:06:56;;;;;;;15.23;2.57;;;;;;;20.47;100.00;100103.84;1686156;83;20975;-57
2022/08/21 04:09:24;;;;;;;20.33;3.23;;;;;;;20.50;100.00;100099.41;1686728;83;21523;-56
2022/08/21 04:11:51;;;;;;;16.63;3.27;;;;;;;20.60;100.00;100090.19;1686168;85;21016;-65
2022/08/21 04:14:19;;;;;;;14.23;3.07;;;;;;;20.69;100.00;100093.73;1686499;85;22345;-56
2022/08/21 04:16:47;;;;;;;16.43;2.63;;;;;;;20.79;100.00;100103.05;1687039;85;21541;-56
2022/08/21 04:19:14;;;;;;;15.63;2.90;;;;;;;20.84;100.00;100107.88;1686222;85;21477;-57
2022/08/21 04:21:42;;;;;;;19.40;3.87;;;;;;;20.93;100.00;100108.72;1686872;83;21524;-57
2022/08/21 04:24:09;;;;;;;10.00;2.43;;;;;;;20.99;100.00;100110.36;1686208;85;21795;-57
2022/08/21 04:26:38;;;;;;;18.17;2.93;;;;;;;21.07;100.00;100110.67;1686614;83;21267;-63
2022/08/21 04:29:08;;;;;;;17.03;3.43;;;;;;;21.15;100.00;100117.34;1686390;83;21537;-55
2022/08/21 04:31:36;;;;;;;15.83;3.57;;;;;;;21.21;100.00;100117.63;1686597;85;20968;-64
2022/08/21 04:34:05;;;;;;;11.90;2.63;;;;;;;21.32;100.00;100126.44;1686407;85;21556;-56
2022/08/21 04:36:33;;;;;;;22.60;3.53;;;;;;;21.39;100.00;100117.77;1686696;83;20996;-63
2022/08/21 04:39:01;;;;;;;12.93;2.77;;;;;;;21.46;100.00;100113.03;1686474;85;21143;-56
2022/08/21 04:41:29;;;;;;;14.77;3.70;;;;;;;21.56;100.00;100116.27;1686299;85;21505;-65
2022/08/21 04:43:56;;;;;;;17.97;2.80;;;;;;;21.64;100.00;100119.74;1686534;83;21102;-56
2022/08/21 04:46:23;;;;;;;16.00;2.93;;;;;;;21.73;100.00;100110.75;1686859;83;21545;-56
2022/08/21 04:48:51;;;;;;;15.53;2.67;;;;;;;21.78;100.00;100113.41;1685853;85;21114;-63
2022/08/21 04:51:23;;;;;;;13.50;3.23;;;;;;;21.82;100.00;100113.98;1686715;85;21211;-56
2022/08/21 04:53:56;;;;;;;17.10;3.00;;;;;;;21.90;100.00;100117.19;1685708;85;21062;-56
2022/08/21 04:56:31;;;;;;;15.47;3.47;;;;;;;21.97;100.00;100119.86;1686873;85;21509;-56
2022/08/21 04:59:06;;;;;;;16.30;4.03;;;;;;;22.06;100.00;100122.26;1686656;85;21016;-57
2022/08/21 05:01:33;;;;;;;13.37;2.53;;;;;;;22.17;100.00;100117.80;1685484;85;21007;-56
2022/08/21 05:04:02;;;;;;;12.60;2.90;;;;;;;22.30;100.00;100116.48;1661861;85;21924;-57
2022/08/21 05:06:31;;;;;;;17.23;3.53;;;;;;;22.58;97.97;100128.47;1654529;85;21024;-58
2022/08/21 05:08:58;;;;;;;17.03;3.53;;;;;;;22.82;92.17;100123.41;1677220;85;20936;-56
2022/08/21 05:11:26;;;;;;;12.07;2.80;;;;;;;23.05;86.52;100128.72;1676623;85;21643;-61
2022/08/21 05:13:55;;;;;;;17.10;2.97;;;;;;;23.23;82.15;100125.49;1677110;85;21296;-58
2022/08/21 05:16:22;;;;;;;14.10;2.60;;;;;;;23.33;82.20;100118.00;1677307;85;22240;-56
2022/08/21 05:18:50;;;;;;;16.70;3.63;;;;;;;23.38;76.54;100128.64;1676559;85;21015;-59
2022/08/21 05:21:18;;;;;;;17.03;3.47;;;;;;;23.35;74.33;100124.40;1676649;85;22007;-63
2022/08/21 05:23:45;;;;;;;14.07;2.77;;;;;;;23.32;75.71;100124.40;1677283;85;21404;-58
2022/08/21 05:26:12;;;;;;;15.57;3.27;;;;;;;23.30;73.60;100125.22;1677347;85;21028;-56
2022/08/21 05:28:40;;;;;;;15.50;2.93;;;;;;;23.28;72.29;100122.02;1676547;85;21250;-66
2022/08/21 05:31:07;;;;;;;10.07;2.50;;;;;;;23.33;70.33;100127.31;1676981;85;21974;-57
2022/08/21 05:33:34;;;;;;;10.37;3.07;;;;;;;23.49;68.90;100118.23;1676749;85;21458;-57
2022/08/21 05:36:03;;;;;;;14.77;3.53;;;;;;;23.64;65.14;100124.03;1677215;85;21008;-57
2022/08/21 05:38:30;;;;;;;11.17;2.83;;;;;;;23.73;64.22;100115.76;1677274;85;21550;-56
2022/08/21 05:40:58;;;;;;;12.60;2.43;;;;;;;23.84;63.41;100116.51;1676545;85;21160;-57
2022/08/21 05:43:26;;;;;;;11.73;2.90;;;;;;;24.12;62.74;100107.55;1676502;85;21095;-56
2022/08/21 05:45:53;;;;;;;12.67;2.90;;;;;;;24.70;60.17;100104.98;1677213;85;21066;-56
2022/08/21 05:48:22;;;;;;;15.03;3.33;;;;;;;25.48;55.06;100115.95;1676951;85;20909;-57
2022/08/21 05:50:50;;;;;;;16.57;3.60;;;;;;;26.15;52.14;100115.34;1677103;85;21072;-58
2022/08/21 05:53:18;;;;;;;13.13;3.27;;;;;;;26.69;49.04;100110.51;1676152;85;22156;-64
2022/08/21 05:55:45;;;;;;;8.95;2.67;;;;;;;26.82;48.43;100099.58;1677101;85;21089;-56
2022/08/21 05:58:15;;;;;;;11.25;2.75;;;;;;;26.72;49.37;100097.89;1677498;85;20944;-56
2022/08/21 06:00:43;;;;;;;14.50;2.90;;;;;;;26.88;49.50;100099.74;1677749;85;21000;-56
2022/08/21 06:03:17;;;;;;;11.28;3.10;;;;;;;26.97;49.26;100106.53;1676818;85;21521;-58
2022/08/21 06:05:45;;;;;;;10.93;3.30;;;;;;;26.99;49.75;100105.16;1676708;84;22440;-56
2022/08/21 06:08:17;;;;;;;13.15;3.30;;;;;;;27.04;48.95;100115.75;1677053;85;21012;-56
2022/08/21 06:10:45;;;;;;;11.38;4.05;;;;;;;26.87;48.10;100116.34;1676506;85;20908;-58
2022/08/21 06:13:12;;;;;;;12.63;3.25;;;;;;;26.56;48.44;100119.30;1677234;85;21873;-64
2022/08/21 06:15:40;;;;;;;9.10;3.25;;;;;;;26.25;49.33;100128.29;1676767;85;21050;-57
2022/08/21 06:18:07;;;;;;;11.83;3.08;;;;;;;26.08;50.02;100131.48;1677426;85;21255;-56
2022/08/21 06:20:35;;;;;;;14.55;4.28;;;;;;;26.02;50.59;100134.76;1676996;85;20949;-64
2022/08/21 06:23:02;;;;;;;11.37;3.60;;;;;;;25.92;49.13;100141.05;1677035;84;21031;-56
2022/08/21 06:25:30;;;;;;;17.42;5.00;;;;;;;25.70;49.22;100131.44;1676677;85;21059;-56
2022/08/21 06:28:06;;;;;;;14.93;3.83;;;;;;;25.54;50.00;100126.83;1677438;85;21000;-56
2022/08/21 06:30:33;;;;;;;12.07;4.30;;;;;;;25.48;50.43;100134.09;1676747;85;21892;-57
2022/08/21 06:33:01;;;;;;;16.40;3.60;;;;;;;25.38;52.14;100123.55;1677028;85;21283;-63
2022/08/21 06:35:28;;;;;;;13.67;3.57;;;;;;;25.37;52.26;100119.27;1677010;85;21087;-56
2022/08/21 06:37:57;;;;;;;11.90;2.60;;;;;;;25.34;51.54;100125.17;1677329;85;21023;-57
2022/08/21 06:40:25;;;;;;;12.37;3.13;;;;;;;25.16;51.88;100134.73;1677173;85;20948;-57
2022/08/21 06:42:52;;;;;;;11.43;2.60;;;;;;;25.19;50.64;100133.34;1677217;85;21880;-56
2022/08/21 06:45:21;;;;;;;9.67;2.33;;;;;;;25.24;50.98;100133.31;1676578;85;21842;-56
2022/08/21 06:47:48;;;;;;;6.87;2.63;;;;;;;25.38;51.31;100134.23;1677092;85;21399;-56
2022/08/21 06:50:16;;;;;;;17.70;2.83;;;;;;;25.58;51.41;100123.84;1677634;85;21064;-55
2022/08/21 06:52:43;;;;;;;10.77;2.10;;;;;;;25.75;49.46;100115.34;1676660;85;21070;-64
2022/08/21 06:55:12;;;;;;;10.03;2.90;;;;;;;25.85;49.50;100119.25;1676536;85;22178;-56
2022/08/21 06:57:40;;;;;;;12.65;3.40;;;;;;;25.96;49.47;100112.68;1677239;85;21279;-56
2022/08/21 07:00:09;;;;;;;10.83;2.97;;;;;;;26.29;49.28;100107.40;1677091;85;20987;-57
2022/08/21 07:02:37;;;;;;;11.83;3.47;;;;;;;26.69;48.17;100111.30;1676528;84;21091;-61
2022/08/21 07:05:06;;;;;;;9.48;3.17;;;;;;;27.04;48.61;100100.25;1676436;85;21110;-56
2022/08/21 07:07:34;;;;;;;11.25;3.27;;;;;;;27.28;47.59;100107.59;1685718;83;21325;-56
2022/08/21 07:10:01;;;;;;;11.25;3.27;;;;;;;27.34;45.37;100102.36;1687296;84;21561;-56
2022/08/21 07:12:31;;;;;;;10.68;2.72;;;;;;;27.11;45.29;100112.72;1687115;85;21024;-57
2022/08/21 07:14:58;;;;;;;9.48;2.70;;;;;;;26.88;46.36;100111.78;1686666;85;20992;-56
2022/08/21 07:17:25;;;;;;;11.93;3.12;;;;;;;26.73;47.22;100110.72;1687111;85;21822;-56
2022/08/21 07:19:54;;;;;;;10.65;3.27;;;;;;;26.71;48.01;100105.67;1687711;85;21265;-56
2022/08/21 07:22:21;;;;;;;8.43;2.92;;;;;;;26.83;48.07;100103.31;1687598;83;20944;-56
2022/08/21 07:24:48;;;;;;;10.60;2.33;;;;;;;27.08;47.30;100103.92;1687031;85;21007;-64
2022/08/21 07:27:15;;;;;;;9.60;2.65;;;;;;;27.13;47.18;100095.30;1687497;85;21031;-56
2022/08/21 07:29:42;;;;;;;8.95;2.70;;;;;;;27.14;47.54;100092.86;1687620;85;21059;-56
2022/08/21 07:32:10;;;;;;;17.90;3.05;;;;;;;27.24;47.61;100093.73;1687556;83;21263;-57
2022/08/21 07:34:37;;;;;;;15.63;4.00;;;;;;;27.66;47.06;100092.62;1687300;85;20944;-63
2022/08/21 07:37:05;;;;;;;10.30;3.12;;;;;;;28.21;45.84;100098.36;1686158;85;20980;-58
2022/08/21 07:39:32;;;;;;;12.85;2.80;;;;;;;28.65;46.05;100084.72;1687453;83;21551;-56
2022/08/21 07:41:59;;;;;;;11.45;2.45;;;;;;;29.13;44.95;100100.88;1687712;85;21501;-57
2022/08/21 07:44:27;;;;;;;13.20;2.95;;;;;;;29.52;44.33;100091.20;1687400;85;21258;-56
2022/08/21 07:46:56;;;;;;;11.50;2.30;;;;;;;29.90;43.11;100094.66;1686715;85;21006;-59
2022/08/21 07:49:23;;;;;;;6.10;2.05;;;;;;;30.26;42.65;100097.80;1688273;85;21534;-57
2022/08/21 07:51:50;;;;;;;10.50;2.65;;;;;;;30.59;40.34;100090.55;1687772;85;21599;-56
2022/08/21 07:54:17;;;;;;;8.93;2.92;;;;;;;30.84;39.53;100091.61;1687732;83;21545;-56
2022/08/21 07:56:45;;;;;;;6.95;1.80;;;;;;;30.89;39.16;100097.36;1687659;83;21112;-61
2022/08/21 07:59:12;;;;;;;12.73;2.77;;;;;;;30.92;38.26;100081.92;1686681;85;20972;-56
2022/08/21 08:01:40;;;;;;;7.33;1.75;;;;;;;30.88;38.87;100089.06;1687685;85;21444;-56
2022/08/21 08:04:07;;;;;;;13.08;2.25;;;;;;;30.99;38.92;100083.00;1687572;83;21091;-57
2022/08/21 08:06:34;;;;;;;10.55;2.70;;;;;;;31.01;38.33;100089.39;1687216;85;21011;-56
2022/08/21 08:09:03;;;;;;;12.15;2.95;;;;;;;30.91;38.24;100085.17;1686698;85;21565;-59
2022/08/21 08:11:31;;;;;;;10.95;2.40;;;;;;;30.93;38.45;100084.84;1687392;83;21261;-56
2022/08/21 08:13:59;;;;;;;13.40;3.17;;;;;;;31.02;38.00;100065.39;1687560;83;20999;-57
2022/08/21 08:16:26;;;;;;;10.88;3.00;;;;;;;31.19;38.61;100071.25;1687815;85;20923;-57
2022/08/21 08:18:55;;;;;;;8.70;2.65;;;;;;;31.29;38.14;100068.16;1686737;85;20984;-64
2022/08/21 08:21:22;;;;;;;6.95;1.95;;;;;;;31.23;37.53;100072.95;1687807;85;22331;-56
2022/08/21 08:23:49;;;;;;;12.30;2.12;;;;;;;31.10;37.43;100082.05;1687559;83;20991;-56
2022/08/21 08:26:16;;;;;;;9.95;1.90;;;;;;;31.00;38.21;100077.84;1687728;83;21137;-56
2022/08/21 08:28:46;;;;;;;9.48;2.20;;;;;;;31.19;38.14;100071.25;1687883;85;20976;-56
2022/08/21 08:31:13;;;;;;;13.75;2.05;;;;;;;31.40;37.32;100085.55;1686813;83;20976;-58
2022/08/21 08:33:41;;;;;;;13.18;2.65;;;;;;;31.35;37.21;100074.19;1687962;85;21881;-59
2022/08/21 08:36:15;;;;;;;8.73;2.60;;;;;;;31.16;37.52;100083.45;1687757;83;20940;-55
2022/08/21 08:38:42;;;;;;;12.18;2.20;;;;;;;30.88;37.65;100085.03;1687086;85;21003;-56
2022/08/21 08:41:17;;;;;;;7.10;1.90;;;;;;;30.48;38.41;100092.00;1686773;83;21489;-62
2022/08/21 08:43:55;;;;;;;9.38;2.25;;;;;;;30.18;38.65;100101.86;1687719;85;21557;-55
2022/08/21 08:46:44;;;;;;;11.70;2.50;;;;;;;29.73;38.70;100112.33;1687639;85;21205;-55
2022/08/21 08:49:22;;;;;;;8.13;1.72;;;;;;;29.29;39.71;100124.08;1687328;85;21118;-57
2022/08/21 08:52:00;;;;;;;11.80;2.02;;;;;;;29.14;40.95;100132.00;1687505;85;21028;-55
2022/08/21 08:54:37;;;;;;;7.85;1.57;;;;;;;29.13;40.97;100108.14;1686907;85;21078;-63
2022/08/21 08:57:09;;;;;;;8.20;2.15;;;;;;;29.04;40.07;100120.19;1668062;85;21868;-55
2022/08/21 08:59:46;;;;;;;7.87;2.22;;;;;;;28.77;40.26;100131.87;1667655;85;21333;-55
2022/08/21 09:02:14;;;;;;;7.85;1.98;;;;;;;28.40;40.93;100127.70;1686908;83;20892;-65
2022/08/21 09:04:42;;;;;;;18.32;2.75;;;;;;;28.12;41.72;100130.47;1687556;85;21328;-56
2022/08/21 09:07:23;;;;;;;8.33;1.70;;;;;;;27.97;42.00;100134.84;1687465;85;20980;-56
2022/08/21 09:10:20;;;;;;;8.93;2.47;;;;;;;27.81;42.57;100132.49;1652705;85;21015;-57
2022/08/21 09:13:07;;;;;;;13.40;2.87;;;;;;;27.71;42.95;100127.31;1687824;85;21815;-55
2022/08/21 09:16:07;;;;;;;6.37;2.10;;;;;;;27.72;43.81;100126.21;1686377;85;21010;-62
2022/08/21 09:18:56;;;;;;;7.17;1.85;;;;;;;27.93;43.45;100135.98;1687465;83;21471;-55
2022/08/21 09:21:37;;;;;;;15.28;2.22;;;;;;;28.14;42.97;100116.20;1686990;84;21051;-56
2022/08/21 09:24:38;;;;;;;5.25;1.60;;;;;;;28.28;42.70;100100.86;1687573;85;20953;-56
2022/08/21 09:27:08;;;;;;;5.08;1.62;;;;;;;28.30;42.03;100105.38;1677664;85;21225;-55
2022/08/21 09:29:39;;;;;;;9.13;1.80;;;;;;;28.11;40.99;100110.13;1687485;85;21070;-55
2022/08/21 09:32:18;;;;;;;11.88;2.15;;;;;;;27.86;40.82;100119.53;1686768;85;20987;-57
2022/08/21 09:35:14;;;;;;;11.25;2.30;;;;;;;27.65;41.29;100115.11;1687206;85;21098;-55
2022/08/21 09:38:05;;;;;;;10.70;3.12;;;;;;;27.44;41.24;100118.77;1686882;85;21502;-64
2022/08/21 09:40:40;;;;;;;8.65;3.62;;;;;;;27.22;41.30;100120.80;1687359;85;21439;-58
2022/08/21 09:43:19;;;;;;;10.75;2.30;;;;;;;26.98;41.94;100129.54;1686420;85;21576;-57
2022/08/21 09:45:47;;;;;;;10.17;3.10;;;;;;;26.79;41.70;100117.57;1687147;85;21070;-55
2022/08/21 09:48:19;;;;;;;7.53;1.85;;;;;;;26.60;42.78;100132.33;1687147;85;20940;-55
2022/08/21 09:50:47;;;;;;;9.38;3.45;;;;;;;26.58;43.20;100129.14;1668020;85;21031;-64
2022/08/21 09:53:24;;;;;;;8.10;1.80;;;;;;;26.50;43.27;100131.15;1686618;83;21238;-60
2022/08/21 09:58:42;;;;;;;6.27;1.30;;;;;;;26.46;43.42;100119.45;1687140;85;20999;-64
2022/08/21 10:01:22;;;;;;;7.60;1.30;;;;;;;26.50;44.07;100123.13;1687252;83;21442;-55
2022/08/21 10:04:04;;;;;;;8.83;1.87;;;;;;;26.52;43.09;100114.27;1687452;84;21490;-55
2022/08/21 10:06:34;;;;;;;4.83;1.57;;;;;;;26.51;43.25;100120.70;1669356;85;21175;-56
2022/08/21 10:09:14;;;;;;;10.80;1.50;;;;;;;26.48;43.83;100120.77;1687650;85;21815;-54
2022/08/21 10:11:44;;;;;;;7.90;1.87;;;;;;;26.44;45.71;100120.52;1687546;85;21067;-55
2022/08/21 10:14:29;;;;;;;10.53;1.40;;;;;;;26.36;45.51;100127.05;1687415;85;21550;-57
2022/08/21 10:17:25;;;;;;;5.60;1.30;;;;;;;26.31;45.22;100120.45;1687629;85;21540;-55
2022/08/21 10:20:10;;;;;;;10.33;2.43;;;;;;;26.19;44.82;100119.57;1669996;85;21168;-55
2022/08/21 10:22:54;;;;;;;7.73;2.70;;;;;;;26.08;44.39;100114.91;1668360;84;21035;-55
2022/08/21 10:25:27;;;;;;;5.17;1.97;;;;;;;25.93;45.17;100107.91;1685774;83;21454;-56
2022/08/21 10:28:17;;;;;;;12.33;2.20;;;;;;;25.90;44.49;100099.14;1686497;84;21612;-55
2022/08/21 10:30:55;;;;;;;;;;;;;;;25.82;45.03;100103.80;1689740;85;21509;-62
2022/08/21 10:33:47;;;;;;;7.20;1.83;;;;;;;25.75;45.23;100091.30;1686931;85;21290;-55
2022/08/21 10:36:33;;;;;;;9.47;1.90;;;;;;;25.66;46.14;100089.04;1685802;83;20988;-60
2022/08/21 10:39:18;;;;;;;9.80;1.60;;;;;;;25.59;46.80;100076.59;1687408;85;22169;-55
2022/08/21 10:42:08;;;;;;;6.57;1.93;;;;;;;25.51;48.06;100072.68;1686539;85;20993;-59
2022/08/21 10:44:47;;;;;;;5.95;1.80;;;;;;;25.43;49.25;100064.77;1687432;85;21012;-56
2022/08/21 10:47:35;;;;;;;3.80;1.60;;;;;;;25.39;50.08;100073.64;1686917;85;21493;-56
2022/08/21 10:50:29;;;;;;;10.90;2.00;;;;;;;25.38;50.86;100076.03;1687048;85;21074;-54
2022/08/21 10:53:10;;;;;;;7.73;1.93;;;;;;;25.41;50.54;100074.14;1686338;83;21146;-57
2022/08/21 10:55:59;;;;;;;8.33;1.40;;;;;;;25.53;51.91;100070.50;1687324;83;21533;-55
2022/08/21 10:58:30;;;;;;;6.07;1.70;;;;;;;25.70;51.75;100068.69;1686158;83;21511;-60
2022/08/21 11:01:05;;;;;;;9.15;1.85;;;;;;;25.95;51.25;100066.25;1687220;85;22331;-56
2022/08/21 11:03:37;;;;;;;4.93;1.43;;;;;;;26.21;51.32;100058.61;1687204;85;20961;-55
2022/08/21 11:06:12;;;;;;;5.07;1.93;;;;;;;26.48;49.51;100059.28;1686477;85;20972;-65
2022/08/21 11:08:43;;;;;;;5.33;2.03;;;;;;;26.81;49.30;100049.86;1683893;83;21452;-56
2022/08/21 11:11:35;;;;;;;7.37;2.10;;;;;;;27.15;48.32;100043.59;1686548;83;21090;-56
2022/08/21 11:14:32;;;;;;;7.63;2.37;;;;;;;27.52;48.40;100035.07;1686291;83;21445;-57
2022/08/21 11:17:13;;;;;;;9.77;2.77;;;;;;;27.90;46.04;100029.42;1668683;85;20959;-57
2022/08/21 11:19:57;;;;;;;7.47;2.20;;;;;;;28.13;46.09;100019.49;1687006;85;21939;-56
2022/08/21 11:22:54;;;;;;;5.95;1.67;;;;;;;28.44;45.15;100018.19;1642988;85;21672;-64
2022/08/21 11:25:31;;;;;;;5.37;1.85;;;;;;;29.02;45.86;100015.06;1686819;85;21118;-56
2022/08/21 11:28:04;;;;;;;5.60;1.67;;;;;;;29.82;44.51;100008.91;1685925;85;21238;-56
2022/08/21 11:30:53;;;;;;;9.60;2.15;;;;;;;30.39;42.14;100005.19;1633375;85;21007;-59
2022/08/21 11:34:11;;;;;;;9.20;2.37;;;;;;;30.64;40.47;99998.89;1686351;85;21478;-58
2022/08/21 11:37:06;;;;;;;7.55;1.55;;;;;;;30.97;40.20;100005.02;1686711;85;21050;-65
2022/08/21 11:39:50;;;;;;;6.78;1.75;;;;;;;31.23;39.07;99999.47;1685949;83;21012;-56